METAR Data
IDs: Format: Raw Decoded Include TAF

Data at: 0831 UTC 07 Dec 2021

KVDF 070735Z AUTO 00000KT 1/4SM FG OVC003 18/17 A3007 RMK AO2
KVDF 070715Z AUTO 00000KT 1/4SM FG OVC003 18/18 A3008 RMK AO2
KVDF 070655Z AUTO 00000KT 1/4SM FG OVC003 18/18 A3008 RMK AO2
KVDF 070635Z AUTO 00000KT M1/4SM FG OVC003 18/17 A3008 RMK AO2
KVDF 070615Z AUTO 00000KT 1/4SM FG OVC003 18/17 A3008 RMK AO2
KVDF 070555Z AUTO 00000KT 1/4SM FG OVC003 18/17 A3008 RMK AO2
KVDF 070535Z AUTO 00000KT 1/4SM FG OVC003 18/17 A3009 RMK AO2
KVDF 070515Z AUTO 00000KT M1/4SM FG OVC003 17/17 A3010 RMK AO2
KVDF 070455Z AUTO 00000KT M1/4SM FG OVC003 17/17 A3011 RMK AO2
KVDF 070435Z AUTO 00000KT 3/4SM BR OVC003 17/16 A3012 RMK AO2
KVDF 070415Z AUTO 00000KT 1/4SM FG OVC003 16/16 A3013 RMK AO2
KVDF 070355Z AUTO 00000KT 2SM BR CLR 16/16 A3013 RMK AO2 VIS 1/2V5
KVDF 070335Z AUTO 00000KT 1SM BR VV007 16/16 A3012 RMK AO2
KVDF 070315Z AUTO 00000KT 10SM CLR 16/16 A3013 RMK AO2
KVDF 070255Z AUTO 00000KT 7SM CLR 17/17 A3012 RMK AO2
KVDF 070235Z AUTO 00000KT 1SM BR VV007 16/16 A3012 RMK AO2 VIS 1/2V5
KVDF 070215Z AUTO 00000KT 1SM BR VV007 17/16 A3013 RMK AO2 VIS 1/2V4
KVDF 070155Z AUTO 00000KT 3SM BR CLR 17/16 A3013 RMK AO2
KVDF 070135Z AUTO 00000KT 10SM CLR 18/17 A3012 RMK AO2
KVDF 070115Z AUTO 00000KT 10SM CLR 18/17 A3012 RMK AO2
KVDF 070055Z AUTO 00000KT 10SM CLR 18/17 A3012 RMK AO2
KVDF 070035Z AUTO 00000KT 10SM CLR 20/17 A3011 RMK AO2
KVDF 070015Z AUTO 33003KT 10SM CLR 21/18 A3011 RMK AO2
KVDF 062355Z AUTO 34003KT 10SM CLR 20/17 A3010 RMK AO2
KVDF 062335Z AUTO 00000KT 10SM CLR 20/18 A3009 RMK AO2
KVDF 062315Z AUTO 00000KT 10SM CLR 21/18 A3008 RMK AO2
KVDF 062255Z AUTO 00000KT 10SM CLR 23/18 A3007 RMK AO2
KVDF 062235Z AUTO 00000KT 10SM CLR 23/18 A3007 RMK AO2
KVDF 062215Z AUTO 00000KT 10SM CLR 25/18 A3006 RMK AO2
KVDF 062155Z AUTO 24003KT 10SM CLR 25/18 A3006 RMK AO2
KVDF 062135Z AUTO 28003KT 10SM CLR 25/18 A3006 RMK AO2
KVDF 062115Z AUTO 26003KT 10SM CLR 26/17 A3006 RMK AO2
KVDF 062055Z AUTO 26003KT 10SM CLR 26/17 A3006 RMK AO2
KVDF 062035Z AUTO 26006KT 10SM SCT040 SCT049 27/18 A3005 RMK AO2
KVDF 062015Z AUTO 24004KT 10SM BKN038 BKN049 27/20 A3006 RMK AO2
KVDF 061955Z AUTO 27003KT 10SM BKN040 27/18 A3006 RMK AO2
KVDF 061935Z AUTO 22010KT 10SM SCT040 28/19 A3006 RMK AO2
KVDF 061915Z AUTO 22008KT 10SM SCT043 28/19 A3007 RMK AO2
KVDF 061855Z AUTO 22010KT 10SM CLR 28/18 A3008 RMK AO2
KVDF 061835Z AUTO 25005KT 10SM CLR 28/19 A3008 RMK AO2
KVDF 061815Z AUTO 22008KT 10SM CLR 27/18 A3009 RMK AO2
KVDF 061755Z AUTO 22009KT 10SM CLR 27/18 A3009 RMK AO2
KVDF 061735Z AUTO 22006KT 10SM CLR 27/20 A3010 RMK AO2
KVDF 061715Z AUTO 22006KT 10SM CLR 27/20 A3011 RMK AO2
KVDF 061655Z AUTO 21006KT 10SM CLR 27/20 A3012 RMK AO2
KVDF 061635Z AUTO 00000KT 10SM CLR 26/21 A3012 RMK AO2
KVDF 061615Z AUTO 22007KT 10SM CLR 25/21 A3014 RMK AO2
KVDF 061555Z AUTO 00000KT 10SM CLR 24/23 A3015 RMK AO2
KVDF 061535Z AUTO 18004KT 10SM BKN002 22/21 A3016 RMK AO2
KVDF 061515Z AUTO 00000KT 7SM OVC002 21/20 A3016 RMK AO2
KVDF 061455Z AUTO 19004KT 4SM BR OVC002 21/20 A3016 RMK AO2
KVDF 061435Z AUTO 16004KT 1SM BR OVC002 20/20 A3017 RMK AO2
KVDF 061415Z AUTO 16003KT 1/2SM FG OVC002 20/19 A3016 RMK AO2
KVDF 061355Z AUTO 00000KT M1/4SM FG OVC002 19/18 A3016 RMK AO2
KVDF 061335Z AUTO 00000KT M1/4SM FG OVC002 18/17 A3014 RMK AO2
KVDF 061315Z AUTO 00000KT M1/4SM FG OVC002 17/16 A3015 RMK AO2
KVDF 061255Z AUTO 00000KT M1/4SM FG OVC002 16/16 A3015 RMK AO2
KVDF 061235Z AUTO M1/4SM FG OVC002 15/15 A3014 RMK AO2
KVDF 061215Z AUTO 00000KT M1/4SM FG OVC002 15/15 A3014 RMK AO2
KVDF 061155Z AUTO 00000KT 3/4SM BR OVC002 15/14 A3013 RMK AO2
KVDF 061135Z AUTO 00000KT 1 3/4SM BR OVC002 14/13 A3012 RMK AO2
KVDF 061115Z AUTO 00000KT 5SM BR OVC004 14/13 A3012 RMK AO2
KVDF 061055Z AUTO 00000KT 1SM BR OVC004 13/13 A3012 RMK AO2 VIS 1/4V5
KVDF 061035Z AUTO 00000KT 1/4SM FG OVC004 13/13 A3012 RMK AO2
KVDF 061015Z AUTO 00000KT 1/4SM FG BKN004 13/13 A3012 RMK AO2
KVDF 060955Z AUTO 00000KT 3SM BR CLR 14/13 A3012 RMK AO2
KVDF 060935Z AUTO 00000KT 5SM BR CLR 14/13 A3012 RMK AO2
KVDF 060915Z AUTO 00000KT 5SM BR SCT004 SCT050 14/13 A3012 RMK AO2
KVDF 060855Z AUTO 00000KT 3/4SM BR BKN004 BKN050 13/13 A3012 RMK AO2
KVDF 060835Z AUTO 00000KT 1 1/2SM BR VV007 14/13 A3012 RMK AO2 VIS 1V4
KVDF 060815Z AUTO 00000KT 3/4SM BR VV005 14/13 A3011 RMK AO2
KVDF 060755Z AUTO 00000KT 4SM BR CLR 14/13 A3012 RMK AO2
KVDF 060735Z AUTO 00000KT 4SM BR CLR 14/13 A3012 RMK AO2
KVDF 060715Z AUTO 00000KT 3SM BR CLR 14/13 A3013 RMK AO2
KVDF 060655Z AUTO 00000KT 3SM BR CLR 15/14 A3014 RMK AO2
KVDF 060635Z AUTO 00000KT 7SM CLR 15/14 A3014 RMK AO2
KVDF 060615Z AUTO 00000KT 5SM BR CLR 15/15 A3014 RMK AO2
KVDF 060555Z AUTO 00000KT 1 1/4SM BR VV007 15/15 A3014 RMK AO2 VIS 1/2V4
KVDF 060535Z AUTO 00000KT 7SM CLR 15/15 A3014 RMK AO2
KVDF 060515Z AUTO 00000KT 7SM CLR 15/14 A3015 RMK AO2
KVDF 060455Z AUTO 00000KT 5SM BR CLR 15/15 A3016 RMK AO2
KVDF 060435Z AUTO 00000KT 7SM CLR 16/16 A3016 RMK AO2
KVDF 060415Z AUTO 00000KT 7SM CLR 15/15 A3016 RMK AO2
KVDF 060355Z AUTO 00000KT 10SM CLR 16/16 A3016 RMK AO2
KVDF 060335Z AUTO 00000KT 10SM CLR 16/15 A3017 RMK AO2
KVDF 060315Z AUTO 00000KT 10SM CLR 16/16 A3016 RMK AO2
KVDF 060255Z AUTO 00000KT 10SM CLR 16/15 A3016 RMK AO2
KVDF 060235Z AUTO 00000KT 10SM CLR 16/15 A3016 RMK AO2
KVDF 060215Z AUTO 00000KT 10SM CLR 16/15 A3016 RMK AO2
KVDF 060155Z AUTO 00000KT 10SM CLR 17/16 A3015 RMK AO2
KVDF 060135Z AUTO 00000KT 10SM CLR 17/16 A3014 RMK AO2
KVDF 060115Z AUTO 00000KT 10SM CLR 18/16 A3014 RMK AO2
KVDF 060055Z AUTO 00000KT 10SM SCT044 18/16 A3013 RMK AO2
KVDF 060035Z AUTO 00000KT 10SM BKN042 18/16 A3013 RMK AO2
KVDF 060015Z AUTO 00000KT 10SM SCT044 BKN050 20/17 A3012 RMK AO2
KVDF 052355Z AUTO 00000KT 10SM BKN046 BKN060 21/17 A3012 RMK AO2
KVDF 052335Z AUTO 00000KT 10SM BKN048 BKN050 22/17 A3012 RMK AO2
KVDF 052315Z AUTO 32004KT 10SM SCT050 SCT065 21/17 A3011 RMK AO2
KVDF 052255Z AUTO 00000KT 10SM CLR 21/16 A3010 RMK AO2
KVDF 052235Z AUTO 00000KT 10SM CLR 22/17 A3010 RMK AO2
KVDF 052215Z AUTO 00000KT 10SM CLR 24/17 A3010 RMK AO2
KVDF 052155Z AUTO 32004KT 10SM SCT060 25/17 A3010 RMK AO2
KVDF 052135Z AUTO 00000KT 10SM BKN050 26/16 A3010 RMK AO2
KVDF 052115Z AUTO 00000KT 10SM OVC050 26/17 A3010 RMK AO2
KVDF 052055Z AUTO 00000KT 10SM OVC050 26/17 A3010 RMK AO2
KVDF 052035Z AUTO 00000KT 10SM OVC050 27/16 A3010 RMK AO2